Angora, NE (69331)

10:43 PM MST on January 30, 2015 (GMT -0700)
Wayne Rd. | Change Station
CLOSE
Current Station
Personal Weather Station
Location: Alliance, NE
Elevation: 4091 ft
Nearby Weather Stations

Elev 4091 ft 42.02 °N, 103.05 °W | Updated 14 minutes ago

Partly Cloudy
Partly Cloudy
32.0 °F
Feels Like 32 °F
N
0.0
Wind Variable Wind from NNE
Gusts 0.0 mph

Today
High -- | Low -- °F
--% Chance of Precip.
Yesterday
High -- | Low -- °F
Precip. -- in
7:06 AM 5:04 PM
Waxing Gibbous, 87% visible
Pressure 30.12 in
Visibility 10.0 miles
Clouds Clear
Windchill 32 °F
Dew Point 27 °F
Humidity 83%
Rainfall 0.00 in
Snow Depth Not available.
UV 0 out of 12
Pollen .10 out of 12
Air Quality Not available.
Flu Activity Not available.
METAR KAIA 310453Z AUTO 00000KT 10SM CLR M01/M03 A3006 RMK AO2 SLP199 T10061033

More Conditions Fewer Conditions

Pressure 30.12 in
Visibility 10.0 miles
Clouds Clear
Windchill 32 °F
Dew Point 27 °F
Humidity 83%
Rainfall 0.00 in
Snow Depth Not available.
UV 0 out of 12
Pollen .10 out of 12
Air Quality Not available.
Flu Activity Not available.
METAR KAIA 310453Z AUTO 00000KT 10SM CLR M01/M03 A3006 RMK AO2 SLP199 T10061033

More Conditions Fewer Conditions

10-Day Weather Forecast

Almanac

Astronomy

Jan. 30, 2015 Rise Set
Actual Time
Civil Twilight
Nautical Twilight
Astronomical Twilight
Moon
Length of Visible Light
Length of Day
Tomorrow will be .
, % of the Moon is Illuminated

Today's Extremes

State Highs State Lows

Community

WunderPhotos

Upload Photos

1,792,005 photos uploaded!

WunderBlogs® & News

Nearby

Air Quality

  Air Quality AQ Index Pollutant
Not available.

Snow Depth

Station Depth Elevation

Earthquake Activity

City Distance Mag. Time & Date
Minimum magnitude displayed is 2.5.

Coastal Water Temperatures

Place Temperature

Nearby Weather Stations